»·PEaware :: N808PF KASE-KCOS

N808PF :: KASE-KCOS

FLIGHT INFORMATION

Flight Status: Arrived
Operator: Privately registered:
United States
More flights under this callsign
Pilot: Ben L. (6391)
Aircraft: ECLIPSE 500
(EA50)
More flights by this aircraft type
Origin: KASE Aspen-Pitkin Co/Sardy
United States
Destination: KCOS City Of Colorado Springs Mun
United States
More flights between these airports :: More routes between these airports
Route: LINDZ9 DBL V108 BRK
File this flight plan on PilotEdge
Remarks:
Altitude:
(Current/Filed)
27,000ft
Speed:
(Current/Filed)
300kts
Departed: 30-Mar-20 05:07 PM
Arrived: 30-Mar-20 05:45 PM
Distance/Time
Traveled:
103nm/0:38
Distance/Time
To Go:
Arrived

Flight Plot

Page will automatically refresh every two minutes.

Flight plan parsing failed; only flown route is shown


Map Options




Map Legend


Flown Route
Filed Route
Departure Airport
Arrival Airport
Navaid (VOR, NDB)
Fix

Horizontal Profiles

Position Reports

Time Latitude Longitude Heading Altitude Ground
Speed
30-Mar-20 15:54 39.229047 -106.869907 69 7690ft 0kts
30-Mar-20 15:55 39.229047 -106.869907 69 7690ft 0kts
30-Mar-20 15:56 39.229047 -106.869907 69 7690ft 0kts
30-Mar-20 15:57 39.229047 -106.869907 69 7690ft 0kts
30-Mar-20 15:58 39.229047 -106.869907 69 7690ft 0kts
30-Mar-20 15:59 39.229047 -106.869907 69 7690ft 0kts
30-Mar-20 16:00 39.229047 -106.869907 69 7690ft 0kts
30-Mar-20 16:01 39.229047 -106.869907 69 7690ft 0kts
30-Mar-20 16:02 39.229047 -106.869907 69 7690ft 0kts
30-Mar-20 16:03 39.229047 -106.869907 69 7690ft 0kts
30-Mar-20 16:04 39.229047 -106.869907 69 7690ft 0kts
30-Mar-20 16:05 39.229047 -106.869907 69 7690ft 0kts
30-Mar-20 16:05 39.229047 -106.869907 69 7690ft 0kts
30-Mar-20 16:06 39.229047 -106.869907 69 7690ft 0kts
30-Mar-20 16:08 39.229047 -106.869907 69 7690ft 0kts
30-Mar-20 16:08 39.229047 -106.869907 69 7690ft 0kts
30-Mar-20 16:09 39.229047 -106.869907 69 7690ft 0kts
30-Mar-20 16:10 39.229047 -106.869907 69 7690ft 0kts
30-Mar-20 16:12 39.229047 -106.869907 69 7690ft 0kts
30-Mar-20 16:12 39.229047 -106.869907 69 7690ft 0kts
30-Mar-20 16:13 39.229047 -106.869907 69 7690ft 0kts
30-Mar-20 16:14 39.229047 -106.869907 69 7690ft 0kts
30-Mar-20 16:15 39.229047 -106.869907 69 7690ft 0kts
30-Mar-20 16:16 39.229047 -106.869907 69 7690ft 0kts
30-Mar-20 16:17 39.229047 -106.869907 69 7690ft 0kts
30-Mar-20 16:18 39.229047 -106.869907 69 7690ft 0kts
30-Mar-20 16:19 39.229047 -106.869907 69 7690ft 0kts
30-Mar-20 16:20 39.229047 -106.869907 69 7690ft 0kts
30-Mar-20 16:21 39.229047 -106.869907 69 7690ft 0kts
30-Mar-20 16:22 39.229047 -106.869907 69 7690ft 0kts
30-Mar-20 16:23 39.229047 -106.869907 69 7690ft 0kts
30-Mar-20 16:24 39.229047 -106.869907 69 7690ft 0kts
30-Mar-20 16:25 39.229047 -106.869907 69 7690ft 0kts
30-Mar-20 16:26 39.229047 -106.869907 69 7690ft 0kts
30-Mar-20 16:27 39.229047 -106.869907 69 7690ft 0kts
30-Mar-20 16:28 39.229047 -106.869907 69 7690ft 0kts
30-Mar-20 16:29 39.229047 -106.869907 69 7690ft 0kts
30-Mar-20 16:30 39.229047 -106.869907 69 7690ft 0kts
30-Mar-20 16:31 39.229047 -106.869907 69 7690ft 0kts
30-Mar-20 16:32 39.229047 -106.869907 69 7690ft 0kts
30-Mar-20 16:33 39.229047 -106.869907 69 7690ft 0kts
30-Mar-20 16:34 39.229047 -106.869907 69 7690ft 0kts
30-Mar-20 16:35 39.229047 -106.869907 69 7690ft 0kts
30-Mar-20 16:36 39.229047 -106.869907 69 7690ft 0kts
30-Mar-20 16:37 39.229047 -106.869907 69 7690ft 0kts
30-Mar-20 16:38 39.229047 -106.869907 69 7690ft 0kts
30-Mar-20 16:39 39.229047 -106.869907 69 7690ft 0kts
30-Mar-20 16:40 39.229047 -106.869907 69 7690ft 0kts
30-Mar-20 16:41 39.229047 -106.869907 69 7690ft 0kts
30-Mar-20 16:42 39.229047 -106.869907 69 7690ft 0kts
30-Mar-20 16:43 39.229047 -106.869907 69 7690ft 0kts
30-Mar-20 16:44 39.229047 -106.869907 69 7690ft 0kts
30-Mar-20 16:45 39.229047 -106.869907 69 7690ft 0kts
30-Mar-20 16:46 39.229173 -106.869898 314 7690ft 2kts
30-Mar-20 16:47 39.228473 -106.870163 163 7693ft 5kts
30-Mar-20 16:48 39.226473 -106.869225 157 7708ft 11kts
30-Mar-20 16:49 39.224221 -106.868141 157 7727ft 13kts
30-Mar-20 16:50 39.221953 -106.867056 157 7750ft 13kts
30-Mar-20 16:51 39.218379 -106.865337 162 7784ft 20kts
30-Mar-20 16:52 39.214587 -106.863526 164 7815ft 0kts
30-Mar-20 16:53 39.213946 -106.863246 159 7816ft 3kts
30-Mar-20 16:54 39.213423 -106.862961 146 7815ft 4kts
30-Mar-20 16:55 39.213071 -106.862778 171 7815ft 5kts
30-Mar-20 16:56 39.212174 -106.862470 186 7816ft 0kts
30-Mar-20 16:57 39.212174 -106.862470 186 7816ft 0kts
30-Mar-20 16:58 39.212174 -106.862470 186 7816ft 0kts
30-Mar-20 16:59 39.212174 -106.862470 186 7816ft 0kts
30-Mar-20 17:00 39.212174 -106.862470 186 7816ft 0kts
30-Mar-20 17:01 39.212174 -106.862470 186 7816ft 0kts
30-Mar-20 17:02 39.212174 -106.862470 186 7816ft 0kts
30-Mar-20 17:03 39.211983 -106.863546 338 7821ft 0kts
30-Mar-20 17:04 39.212023 -106.863564 341 7821ft 0kts
30-Mar-20 17:05 39.212064 -106.863580 343 7821ft 0kts
30-Mar-20 17:06 39.215828 -106.865335 339 7806ft 77kts
30-Mar-20 17:07 39.253147 -106.882026 353 8802ft 178kts
30-Mar-20 17:08 39.277075 -106.927763 289 11529ft 171kts
30-Mar-20 17:09 39.288412 -106.995775 282 13289ft 210kts
30-Mar-20 17:10 39.323401 -107.032047 39 15341ft 221kts
30-Mar-20 17:11 39.369748 -106.974200 36 17045ft 241kts
30-Mar-20 17:12 39.420845 -106.915731 36 18855ft 248kts
30-Mar-20 17:13 39.421844 -106.831429 112 20417ft 276kts
30-Mar-20 17:14 39.396044 -106.736248 104 21889ft 284kts
30-Mar-20 17:15 39.374277 -106.636374 102 23243ft 291kts
30-Mar-20 17:16 39.353162 -106.534796 101 24534ft 297kts
30-Mar-20 17:17 39.331527 -106.430125 101 25706ft 304kts
30-Mar-20 17:18 39.310157 -106.326909 102 26733ft 311kts
30-Mar-20 17:19 39.287035 -106.215740 102 27217ft 335kts
30-Mar-20 17:20 39.261848 -106.095332 102 27221ft 365kts
30-Mar-20 17:21 39.234460 -105.965257 102 27226ft 384kts
30-Mar-20 17:22 39.205712 -105.829555 102 27238ft 396kts
30-Mar-20 17:23 39.170623 -105.692624 115 27241ft 406kts
30-Mar-20 17:24 39.121519 -105.560763 113 27240ft 404kts
30-Mar-20 17:25 39.073333 -105.428241 113 27242ft 410kts
30-Mar-20 17:26 39.027155 -105.301426 114 27215ft 411kts
30-Mar-20 17:27 38.977905 -105.166777 113 27140ft 416kts
30-Mar-20 17:28 38.928296 -105.031633 114 25938ft 407kts
30-Mar-20 17:29 38.885970 -104.916832 114 24226ft 391kts
30-Mar-20 17:30 38.840181 -104.793270 114 22310ft 376kts
30-Mar-20 17:31 38.798392 -104.673206 95 20394ft 360kts
30-Mar-20 17:32 38.846731 -104.578417 35 18484ft 322kts
30-Mar-20 17:33 38.909407 -104.499421 64 16562ft 324kts
30-Mar-20 17:34 38.867138 -104.421593 189 14420ft 274kts
30-Mar-20 17:35 38.796197 -104.426642 187 12195ft 243kts
30-Mar-20 17:36 38.736823 -104.450420 214 10189ft 218kts
30-Mar-20 17:37 38.700926 -104.502423 259 8395ft 191kts
30-Mar-20 17:38 38.698455 -104.566034 279 7483ft 162kts
30-Mar-20 17:39 38.702584 -104.620063 279 7497ft 150kts
30-Mar-20 17:40 38.715830 -104.667159 305 7299ft 138kts
30-Mar-20 17:41 38.738889 -104.702161 323 6819ft 114kts
30-Mar-20 17:42 38.766316 -104.715611 355 6456ft 101kts
30-Mar-20 17:43 38.793448 -104.715934 359 6143ft 99kts
30-Mar-20 17:44 38.806127 -104.716879 271 6095ft 0kts
30-Mar-20 17:45 38.805517 -104.719681 206 6095ft 5kts
30-Mar-20 17:46 38.805430 -104.719735 195 6095ft 0kts
30-Mar-20 17:47 38.805430 -104.719735 195 6095ft 0kts

Navigation Log

Ident Type
Flight plan parsing failed, navigation log unavailable